sensor_id;sensor_type;location;lat;lon;timestamp;temperature;humidity
14397;DHT22;50653;47.810;13.022;2023-04-25T00:01:23;10.10;99.90
14397;DHT22;50653;47.810;13.022;2023-04-25T00:03:49;9.90;99.90
14397;DHT22;50653;47.810;13.022;2023-04-25T00:06:15;9.90;99.90
14397;DHT22;50653;47.810;13.022;2023-04-25T00:08:41;10.00;99.90
14397;DHT22;50653;47.810;13.022;2023-04-25T00:11:07;10.00;99.90
14397;DHT22;50653;47.810;13.022;2023-04-25T00:13:32;9.90;99.90
14397;DHT22;50653;47.810;13.022;2023-04-25T00:15:58;10.00;99.90
14397;DHT22;50653;47.810;13.022;2023-04-25T00:18:25;9.90;99.90
14397;DHT22;50653;47.810;13.022;2023-04-25T00:20:54;10.00;99.90
14397;DHT22;50653;47.810;13.022;2023-04-25T00:23:20;10.10;99.90
14397;DHT22;50653;47.810;13.022;2023-04-25T00:25:50;10.10;99.90
14397;DHT22;50653;47.810;13.022;2023-04-25T00:28:16;10.10;99.90
14397;DHT22;50653;47.810;13.022;2023-04-25T00:30:43;9.80;99.90
14397;DHT22;50653;47.810;13.022;2023-04-25T00:33:09;9.80;99.90
14397;DHT22;50653;47.810;13.022;2023-04-25T00:35:35;9.80;99.90
14397;DHT22;50653;47.810;13.022;2023-04-25T00:38:01;9.90;99.90
14397;DHT22;50653;47.810;13.022;2023-04-25T00:40:27;9.90;99.90
14397;DHT22;50653;47.810;13.022;2023-04-25T00:42:53;9.90;99.90
14397;DHT22;50653;47.810;13.022;2023-04-25T00:45:20;9.90;99.90
14397;DHT22;50653;47.810;13.022;2023-04-25T00:47:46;9.80;99.90
14397;DHT22;50653;47.810;13.022;2023-04-25T00:50:13;9.90;99.90
14397;DHT22;50653;47.810;13.022;2023-04-25T00:52:43;9.90;99.90
14397;DHT22;50653;47.810;13.022;2023-04-25T00:55:10;9.80;99.90
14397;DHT22;50653;47.810;13.022;2023-04-25T00:57:36;9.90;99.90
14397;DHT22;50653;47.810;13.022;2023-04-25T01:00:04;9.70;99.90
14397;DHT22;50653;47.810;13.022;2023-04-25T01:02:32;9.60;99.90
14397;DHT22;50653;47.810;13.022;2023-04-25T01:04:57;9.80;99.90
14397;DHT22;50653;47.810;13.022;2023-04-25T01:07:23;9.50;99.90
14397;DHT22;50653;47.810;13.022;2023-04-25T01:09:51;9.50;99.90
14397;DHT22;50653;47.810;13.022;2023-04-25T01:12:17;9.60;99.90
14397;DHT22;50653;47.810;13.022;2023-04-25T01:14:43;9.70;99.90
14397;DHT22;50653;47.810;13.022;2023-04-25T01:17:10;9.60;99.90
14397;DHT22;50653;47.810;13.022;2023-04-25T01:19:36;9.50;99.90
14397;DHT22;50653;47.810;13.022;2023-04-25T01:22:02;9.50;99.90
14397;DHT22;50653;47.810;13.022;2023-04-25T01:24:32;9.50;99.90
14397;DHT22;50653;47.810;13.022;2023-04-25T01:26:58;9.70;99.90
14397;DHT22;50653;47.810;13.022;2023-04-25T01:29:28;9.70;99.90
14397;DHT22;50653;47.810;13.022;2023-04-25T01:31:54;9.60;99.90
14397;DHT22;50653;47.810;13.022;2023-04-25T01:34:20;9.70;99.90
14397;DHT22;50653;47.810;13.022;2023-04-25T01:36:50;9.60;99.90
14397;DHT22;50653;47.810;13.022;2023-04-25T01:39:17;9.60;99.90
14397;DHT22;50653;47.810;13.022;2023-04-25T01:41:45;9.20;99.90
14397;DHT22;50653;47.810;13.022;2023-04-25T01:44:11;9.20;99.90
14397;DHT22;50653;47.810;13.022;2023-04-25T01:46:37;9.40;99.90
14397;DHT22;50653;47.810;13.022;2023-04-25T01:49:04;9.60;99.90
14397;DHT22;50653;47.810;13.022;2023-04-25T01:51:30;9.50;99.90
14397;DHT22;50653;47.810;13.022;2023-04-25T01:53:57;9.60;99.90
14397;DHT22;50653;47.810;13.022;2023-04-25T01:56:24;9.60;99.90
14397;DHT22;50653;47.810;13.022;2023-04-25T01:58:51;9.60;99.90
14397;DHT22;50653;47.810;13.022;2023-04-25T02:01:19;9.50;99.90
14397;DHT22;50653;47.810;13.022;2023-04-25T02:03:56;9.40;99.90
14397;DHT22;50653;47.810;13.022;2023-04-25T02:06:31;9.40;99.90
14397;DHT22;50653;47.810;13.022;2023-04-25T02:08:57;9.50;99.90
14397;DHT22;50653;47.810;13.022;2023-04-25T02:11:23;9.60;99.90
14397;DHT22;50653;47.810;13.022;2023-04-25T02:14:21;9.60;99.90
14397;DHT22;50653;47.810;13.022;2023-04-25T02:16:54;9.60;99.90
14397;DHT22;50653;47.810;13.022;2023-04-25T02:19:19;9.70;99.90
14397;DHT22;50653;47.810;13.022;2023-04-25T02:21:46;9.50;99.90
14397;DHT22;50653;47.810;13.022;2023-04-25T02:24:12;9.50;99.90
14397;DHT22;50653;47.810;13.022;2023-04-25T02:26:37;9.40;99.90
14397;DHT22;50653;47.810;13.022;2023-04-25T02:29:07;9.40;99.90
14397;DHT22;50653;47.810;13.022;2023-04-25T02:31:32;9.30;99.90
14397;DHT22;50653;47.810;13.022;2023-04-25T02:33:58;9.30;99.90
14397;DHT22;50653;47.810;13.022;2023-04-25T02:36:23;9.40;99.90
14397;DHT22;50653;47.810;13.022;2023-04-25T02:38:49;9.50;99.90
14397;DHT22;50653;47.810;13.022;2023-04-25T02:41:15;9.60;99.90
14397;DHT22;50653;47.810;13.022;2023-04-25T02:43:41;9.50;99.90
14397;DHT22;50653;47.810;13.022;2023-04-25T02:46:07;9.50;99.90
14397;DHT22;50653;47.810;13.022;2023-04-25T02:48:33;9.50;99.90
14397;DHT22;50653;47.810;13.022;2023-04-25T02:50:58;9.60;99.90
14397;DHT22;50653;47.810;13.022;2023-04-25T02:53:24;9.70;99.90
14397;DHT22;50653;47.810;13.022;2023-04-25T02:55:52;9.50;99.90
14397;DHT22;50653;47.810;13.022;2023-04-25T02:58:18;9.40;99.90
14397;DHT22;50653;47.810;13.022;2023-04-25T03:00:47;9.40;99.90
14397;DHT22;50653;47.810;13.022;2023-04-25T03:03:14;9.30;99.90
14397;DHT22;50653;47.810;13.022;2023-04-25T03:05:43;9.20;99.90
14397;DHT22;50653;47.810;13.022;2023-04-25T03:08:09;9.30;99.90
14397;DHT22;50653;47.810;13.022;2023-04-25T03:10:37;9.30;99.90
14397;DHT22;50653;47.810;13.022;2023-04-25T03:13:05;9.40;99.90
14397;DHT22;50653;47.810;13.022;2023-04-25T03:15:31;9.30;99.90
14397;DHT22;50653;47.810;13.022;2023-04-25T03:17:56;9.40;99.90
14397;DHT22;50653;47.810;13.022;2023-04-25T03:20:23;9.40;99.90
14397;DHT22;50653;47.810;13.022;2023-04-25T03:22:48;9.40;99.90
14397;DHT22;50653;47.810;13.022;2023-04-25T03:25:14;9.20;99.90
14397;DHT22;50653;47.810;13.022;2023-04-25T03:27:40;9.30;99.90
14397;DHT22;50653;47.810;13.022;2023-04-25T03:30:07;9.30;99.90
14397;DHT22;50653;47.810;13.022;2023-04-25T03:32:34;9.20;99.90
14397;DHT22;50653;47.810;13.022;2023-04-25T03:35:00;9.30;99.90
14397;DHT22;50653;47.810;13.022;2023-04-25T03:37:27;9.30;99.90
14397;DHT22;50653;47.810;13.022;2023-04-25T03:39:53;9.40;99.90
14397;DHT22;50653;47.810;13.022;2023-04-25T03:42:21;9.40;99.90
14397;DHT22;50653;47.810;13.022;2023-04-25T03:44:49;9.20;99.90
14397;DHT22;50653;47.810;13.022;2023-04-25T03:47:15;9.20;99.90
14397;DHT22;50653;47.810;13.022;2023-04-25T03:49:41;9.30;99.90
14397;DHT22;50653;47.810;13.022;2023-04-25T03:52:07;9.30;99.90
14397;DHT22;50653;47.810;13.022;2023-04-25T03:54:37;9.20;99.90
14397;DHT22;50653;47.810;13.022;2023-04-25T03:57:09;9.30;99.90
14397;DHT22;50653;47.810;13.022;2023-04-25T03:59:37;9.40;99.90
14397;DHT22;50653;47.810;13.022;2023-04-25T04:02:04;9.20;99.90
14397;DHT22;50653;47.810;13.022;2023-04-25T04:04:32;9.30;99.90
14397;DHT22;50653;47.810;13.022;2023-04-25T04:06:59;9.30;99.90
14397;DHT22;50653;47.810;13.022;2023-04-25T04:09:27;9.40;99.90
14397;DHT22;50653;47.810;13.022;2023-04-25T04:11:54;9.40;99.90
14397;DHT22;50653;47.810;13.022;2023-04-25T04:14:20;9.50;99.90
14397;DHT22;50653;47.810;13.022;2023-04-25T04:16:48;9.50;99.90
14397;DHT22;50653;47.810;13.022;2023-04-25T04:19:14;9.30;99.90
14397;DHT22;50653;47.810;13.022;2023-04-25T04:21:45;9.30;99.90
14397;DHT22;50653;47.810;13.022;2023-04-25T04:24:11;9.40;99.90
14397;DHT22;50653;47.810;13.022;2023-04-25T04:26:50;9.30;99.90
14397;DHT22;50653;47.810;13.022;2023-04-25T04:29:29;9.30;99.90
14397;DHT22;50653;47.810;13.022;2023-04-25T04:31:59;9.50;99.90
14397;DHT22;50653;47.810;13.022;2023-04-25T04:34:27;9.40;99.90
14397;DHT22;50653;47.810;13.022;2023-04-25T04:36:53;9.40;99.90
14397;DHT22;50653;47.810;13.022;2023-04-25T04:39:19;9.50;99.90
14397;DHT22;50653;47.810;13.022;2023-04-25T04:42:00;9.50;99.90
14397;DHT22;50653;47.810;13.022;2023-04-25T04:44:42;9.50;99.90
14397;DHT22;50653;47.810;13.022;2023-04-25T04:47:25;9.50;99.90
14397;DHT22;50653;47.810;13.022;2023-04-25T04:49:58;9.50;99.90
14397;DHT22;50653;47.810;13.022;2023-04-25T04:52:40;9.40;99.90
14397;DHT22;50653;47.810;13.022;2023-04-25T04:55:26;9.50;99.90
14397;DHT22;50653;47.810;13.022;2023-04-25T04:58:15;9.30;99.90
14397;DHT22;50653;47.810;13.022;2023-04-25T05:01:05;9.40;99.90
14397;DHT22;50653;47.810;13.022;2023-04-25T05:03:34;9.50;99.90
14397;DHT22;50653;47.810;13.022;2023-04-25T05:06:02;9.40;99.90
14397;DHT22;50653;47.810;13.022;2023-04-25T05:08:44;9.50;99.90
14397;DHT22;50653;47.810;13.022;2023-04-25T05:11:45;9.50;99.90
14397;DHT22;50653;47.810;13.022;2023-04-25T05:14:25;9.50;99.90
14397;DHT22;50653;47.810;13.022;2023-04-25T05:17:15;9.60;99.90
14397;DHT22;50653;47.810;13.022;2023-04-25T05:19:59;9.50;99.90
14397;DHT22;50653;47.810;13.022;2023-04-25T05:22:44;9.60;99.90
14397;DHT22;50653;47.810;13.022;2023-04-25T05:25:28;9.60;99.90
14397;DHT22;50653;47.810;13.022;2023-04-25T05:27:59;9.60;99.90
14397;DHT22;50653;47.810;13.022;2023-04-25T05:30:37;9.70;99.90
14397;DHT22;50653;47.810;13.022;2023-04-25T05:33:10;9.60;99.90
14397;DHT22;50653;47.810;13.022;2023-04-25T05:35:37;9.50;99.90
14397;DHT22;50653;47.810;13.022;2023-04-25T05:38:02;9.40;99.90
14397;DHT22;50653;47.810;13.022;2023-04-25T05:40:51;9.30;99.90
14397;DHT22;50653;47.810;13.022;2023-04-25T05:43:34;9.40;99.90
14397;DHT22;50653;47.810;13.022;2023-04-25T05:46:20;9.00;99.90
14397;DHT22;50653;47.810;13.022;2023-04-25T05:49:09;9.10;99.90
14397;DHT22;50653;47.810;13.022;2023-04-25T05:51:55;9.00;99.90
14397;DHT22;50653;47.810;13.022;2023-04-25T05:54:39;9.00;99.90
14397;DHT22;50653;47.810;13.022;2023-04-25T05:57:05;8.70;99.90
14397;DHT22;50653;47.810;13.022;2023-04-25T05:59:31;8.60;99.90
14397;DHT22;50653;47.810;13.022;2023-04-25T06:01:57;8.60;99.90
14397;DHT22;50653;47.810;13.022;2023-04-25T06:04:23;8.70;99.90
14397;DHT22;50653;47.810;13.022;2023-04-25T06:06:49;8.50;99.90
14397;DHT22;50653;47.810;13.022;2023-04-25T06:09:14;8.70;99.90
14397;DHT22;50653;47.810;13.022;2023-04-25T06:11:40;9.00;99.90
14397;DHT22;50653;47.810;13.022;2023-04-25T06:14:07;9.00;99.90
14397;DHT22;50653;47.810;13.022;2023-04-25T06:16:35;9.10;99.90
14397;DHT22;50653;47.810;13.022;2023-04-25T06:19:01;9.20;99.90
14397;DHT22;50653;47.810;13.022;2023-04-25T06:21:26;9.10;99.90
14397;DHT22;50653;47.810;13.022;2023-04-25T06:23:52;9.00;99.90
14397;DHT22;50653;47.810;13.022;2023-04-25T06:26:21;9.10;99.90
14397;DHT22;50653;47.810;13.022;2023-04-25T06:28:47;9.00;99.90
14397;DHT22;50653;47.810;13.022;2023-04-25T06:31:13;9.10;99.90
14397;DHT22;50653;47.810;13.022;2023-04-25T06:33:40;9.20;99.90
14397;DHT22;50653;47.810;13.022;2023-04-25T06:36:06;9.10;99.90
14397;DHT22;50653;47.810;13.022;2023-04-25T06:38:32;9.10;99.90
14397;DHT22;50653;47.810;13.022;2023-04-25T06:40:58;9.10;99.90
14397;DHT22;50653;47.810;13.022;2023-04-25T06:43:27;8.90;99.90
14397;DHT22;50653;47.810;13.022;2023-04-25T06:46:04;8.80;99.90
14397;DHT22;50653;47.810;13.022;2023-04-25T06:48:33;8.90;99.90
14397;DHT22;50653;47.810;13.022;2023-04-25T06:50:59;8.90;99.90
14397;DHT22;50653;47.810;13.022;2023-04-25T06:53:25;8.90;99.90
14397;DHT22;50653;47.810;13.022;2023-04-25T06:55:57;8.90;99.90
14397;DHT22;50653;47.810;13.022;2023-04-25T06:58:26;8.90;99.90
14397;DHT22;50653;47.810;13.022;2023-04-25T07:01:08;8.80;99.90
14397;DHT22;50653;47.810;13.022;2023-04-25T07:03:34;8.80;99.90
14397;DHT22;50653;47.810;13.022;2023-04-25T07:06:05;9.10;99.90
14397;DHT22;50653;47.810;13.022;2023-04-25T07:08:31;9.20;99.90
14397;DHT22;50653;47.810;13.022;2023-04-25T07:10:58;9.20;99.90
14397;DHT22;50653;47.810;13.022;2023-04-25T07:13:23;9.30;99.90
14397;DHT22;50653;47.810;13.022;2023-04-25T07:15:49;9.20;99.90
14397;DHT22;50653;47.810;13.022;2023-04-25T07:18:17;9.20;99.90
14397;DHT22;50653;47.810;13.022;2023-04-25T07:20:42;9.20;99.90
14397;DHT22;50653;47.810;13.022;2023-04-25T07:23:09;9.30;99.90
14397;DHT22;50653;47.810;13.022;2023-04-25T07:25:35;9.50;99.90
14397;DHT22;50653;47.810;13.022;2023-04-25T07:28:01;9.50;99.90
14397;DHT22;50653;47.810;13.022;2023-04-25T07:30:27;9.50;99.90
14397;DHT22;50653;47.810;13.022;2023-04-25T07:32:53;9.60;99.90
14397;DHT22;50653;47.810;13.022;2023-04-25T07:35:19;9.50;99.90
14397;DHT22;50653;47.810;13.022;2023-04-25T07:37:47;9.50;99.90
14397;DHT22;50653;47.810;13.022;2023-04-25T07:40:17;9.50;99.90
14397;DHT22;50653;47.810;13.022;2023-04-25T07:42:49;9.50;99.90
14397;DHT22;50653;47.810;13.022;2023-04-25T07:45:20;9.50;99.90
14397;DHT22;50653;47.810;13.022;2023-04-25T07:47:46;9.70;99.90
14397;DHT22;50653;47.810;13.022;2023-04-25T07:50:12;9.70;99.90
14397;DHT22;50653;47.810;13.022;2023-04-25T07:52:38;9.70;99.90
14397;DHT22;50653;47.810;13.022;2023-04-25T07:55:18;9.70;99.90
14397;DHT22;50653;47.810;13.022;2023-04-25T07:58:16;9.80;99.90
14397;DHT22;50653;47.810;13.022;2023-04-25T08:00:47;9.90;99.90
14397;DHT22;50653;47.810;13.022;2023-04-25T08:03:26;9.90;99.90
14397;DHT22;50653;47.810;13.022;2023-04-25T08:05:53;9.90;99.90
14397;DHT22;50653;47.810;13.022;2023-04-25T08:08:18;9.90;99.90
14397;DHT22;50653;47.810;13.022;2023-04-25T08:10:45;9.80;99.90
14397;DHT22;50653;47.810;13.022;2023-04-25T08:13:12;9.80;99.90
14397;DHT22;50653;47.810;13.022;2023-04-25T08:15:39;9.80;99.90
14397;DHT22;50653;47.810;13.022;2023-04-25T08:18:04;9.90;99.90
14397;DHT22;50653;47.810;13.022;2023-04-25T08:20:31;9.90;99.90
14397;DHT22;50653;47.810;13.022;2023-04-25T08:22:59;9.90;99.90
14397;DHT22;50653;47.810;13.022;2023-04-25T08:25:50;10.00;99.90
14397;DHT22;50653;47.810;13.022;2023-04-25T08:28:19;10.10;99.90
14397;DHT22;50653;47.810;13.022;2023-04-25T08:30:46;10.20;99.90
14397;DHT22;50653;47.810;13.022;2023-04-25T08:33:16;10.20;99.90
14397;DHT22;50653;47.810;13.022;2023-04-25T08:35:45;10.30;99.90
14397;DHT22;50653;47.810;13.022;2023-04-25T08:38:12;10.30;99.30
14397;DHT22;50653;47.810;13.022;2023-04-25T08:40:39;10.30;97.80
14397;DHT22;50653;47.810;13.022;2023-04-25T08:43:13;10.50;98.90
14397;DHT22;50653;47.810;13.022;2023-04-25T08:45:41;10.50;98.40
14397;DHT22;50653;47.810;13.022;2023-04-25T08:48:12;10.60;97.00
14397;DHT22;50653;47.810;13.022;2023-04-25T08:50:40;10.60;96.60
14397;DHT22;50653;47.810;13.022;2023-04-25T08:53:09;10.60;95.20
14397;DHT22;50653;47.810;13.022;2023-04-25T08:55:41;10.60;95.20
14397;DHT22;50653;47.810;13.022;2023-04-25T08:58:09;10.70;96.30
14397;DHT22;50653;47.810;13.022;2023-04-25T09:00:36;10.70;94.70
14397;DHT22;50653;47.810;13.022;2023-04-25T09:03:03;10.80;94.50
14397;DHT22;50653;47.810;13.022;2023-04-25T09:05:33;10.90;93.30
14397;DHT22;50653;47.810;13.022;2023-04-25T09:07:58;10.90;92.40
14397;DHT22;50653;47.810;13.022;2023-04-25T09:10:26;11.00;93.10
14397;DHT22;50653;47.810;13.022;2023-04-25T09:13:09;11.10;92.50
14397;DHT22;50653;47.810;13.022;2023-04-25T09:15:57;11.20;92.90
14397;DHT22;50653;47.810;13.022;2023-04-25T09:18:41;11.20;93.70
14397;DHT22;50653;47.810;13.022;2023-04-25T09:21:09;10.90;93.70
14397;DHT22;50653;47.810;13.022;2023-04-25T09:23:46;10.80;93.50
14397;DHT22;50653;47.810;13.022;2023-04-25T09:26:16;10.70;93.50
14397;DHT22;50653;47.810;13.022;2023-04-25T09:28:43;10.70;92.60
14397;DHT22;50653;47.810;13.022;2023-04-25T09:31:12;10.50;93.60
14397;DHT22;50653;47.810;13.022;2023-04-25T09:33:44;10.50;94.80
14397;DHT22;50653;47.810;13.022;2023-04-25T09:36:11;10.30;93.50
14397;DHT22;50653;47.810;13.022;2023-04-25T09:38:46;10.30;92.80
14397;DHT22;50653;47.810;13.022;2023-04-25T09:41:24;10.30;92.70
14397;DHT22;50653;47.810;13.022;2023-04-25T09:43:57;10.10;92.10
14397;DHT22;50653;47.810;13.022;2023-04-25T09:46:25;10.20;93.30
14397;DHT22;50653;47.810;13.022;2023-04-25T09:48:54;10.30;93.60
14397;DHT22;50653;47.810;13.022;2023-04-25T09:51:28;10.40;94.20
14397;DHT22;50653;47.810;13.022;2023-04-25T09:53:55;10.40;94.40
14397;DHT22;50653;47.810;13.022;2023-04-25T09:56:57;10.50;95.00
14397;DHT22;50653;47.810;13.022;2023-04-25T09:59:23;10.50;95.00
14397;DHT22;50653;47.810;13.022;2023-04-25T10:01:49;10.60;95.40
14397;DHT22;50653;47.810;13.022;2023-04-25T10:04:25;10.60;95.20
14397;DHT22;50653;47.810;13.022;2023-04-25T10:07:07;10.70;95.80
14397;DHT22;50653;47.810;13.022;2023-04-25T10:09:33;10.60;95.00
14397;DHT22;50653;47.810;13.022;2023-04-25T10:12:02;10.90;95.30
14397;DHT22;50653;47.810;13.022;2023-04-25T10:14:31;11.00;97.40
14397;DHT22;50653;47.810;13.022;2023-04-25T10:16:58;10.80;97.50
14397;DHT22;50653;47.810;13.022;2023-04-25T10:19:25;10.70;97.10
14397;DHT22;50653;47.810;13.022;2023-04-25T10:22:12;10.70;96.80
14397;DHT22;50653;47.810;13.022;2023-04-25T10:24:39;10.80;97.00
14397;DHT22;50653;47.810;13.022;2023-04-25T10:27:06;10.90;96.30
14397;DHT22;50653;47.810;13.022;2023-04-25T10:29:32;10.90;96.20
14397;DHT22;50653;47.810;13.022;2023-04-25T10:31:58;11.00;95.00
14397;DHT22;50653;47.810;13.022;2023-04-25T10:34:36;11.00;95.00
14397;DHT22;50653;47.810;13.022;2023-04-25T10:37:03;11.00;94.30
14397;DHT22;50653;47.810;13.022;2023-04-25T10:39:29;11.10;95.20
14397;DHT22;50653;47.810;13.022;2023-04-25T10:41:58;11.30;94.80
14397;DHT22;50653;47.810;13.022;2023-04-25T10:44:30;11.40;92.60
14397;DHT22;50653;47.810;13.022;2023-04-25T10:46:57;11.50;93.40
14397;DHT22;50653;47.810;13.022;2023-04-25T10:49:30;11.70;91.90
14397;DHT22;50653;47.810;13.022;2023-04-25T10:52:16;11.70;91.70
14397;DHT22;50653;47.810;13.022;2023-04-25T10:57:27;11.70;95.00
14397;DHT22;50653;47.810;13.022;2023-04-25T10:59:58;11.40;93.30
14397;DHT22;50653;47.810;13.022;2023-04-25T11:08:52;11.40;93.90
14397;DHT22;50653;47.810;13.022;2023-04-25T11:11:18;11.30;93.80
14397;DHT22;50653;47.810;13.022;2023-04-25T11:13:47;11.40;94.60
14397;DHT22;50653;47.810;13.022;2023-04-25T11:16:14;11.50;95.10
14397;DHT22;50653;47.810;13.022;2023-04-25T11:18:43;11.40;94.30
14397;DHT22;50653;47.810;13.022;2023-04-25T11:21:10;11.40;94.40
14397;DHT22;50653;47.810;13.022;2023-04-25T11:23:36;11.40;95.10
14397;DHT22;50653;47.810;13.022;2023-04-25T11:26:03;11.30;95.40
14397;DHT22;50653;47.810;13.022;2023-04-25T11:28:29;11.30;99.10
14397;DHT22;50653;47.810;13.022;2023-04-25T11:30:56;10.70;99.90
14397;DHT22;50653;47.810;13.022;2023-04-25T11:33:25;9.80;99.90
14397;DHT22;50653;47.810;13.022;2023-04-25T11:35:54;9.60;99.90
14397;DHT22;50653;47.810;13.022;2023-04-25T11:38:21;9.60;99.90
14397;DHT22;50653;47.810;13.022;2023-04-25T11:40:52;10.20;99.90
14397;DHT22;50653;47.810;13.022;2023-04-25T11:43:47;10.30;99.90
14397;DHT22;50653;47.810;13.022;2023-04-25T11:46:22;10.20;99.90
14397;DHT22;50653;47.810;13.022;2023-04-25T11:48:48;10.30;99.90
14397;DHT22;50653;47.810;13.022;2023-04-25T11:51:15;10.10;99.90
14397;DHT22;50653;47.810;13.022;2023-04-25T11:53:42;10.00;99.90
14397;DHT22;50653;47.810;13.022;2023-04-25T11:56:10;10.20;99.90
14397;DHT22;50653;47.810;13.022;2023-04-25T11:58:57;10.30;99.90
14397;DHT22;50653;47.810;13.022;2023-04-25T12:01:49;10.40;99.90
14397;DHT22;50653;47.810;13.022;2023-04-25T12:04:17;10.20;99.90
14397;DHT22;50653;47.810;13.022;2023-04-25T12:06:54;10.20;99.90
14397;DHT22;50653;47.810;13.022;2023-04-25T12:09:31;10.40;99.90
14397;DHT22;50653;47.810;13.022;2023-04-25T12:11:59;10.30;99.90
14397;DHT22;50653;47.810;13.022;2023-04-25T12:14:30;10.50;99.90
14397;DHT22;50653;47.810;13.022;2023-04-25T12:16:58;10.60;99.90
14397;DHT22;50653;47.810;13.022;2023-04-25T12:19:24;10.30;99.90
14397;DHT22;50653;47.810;13.022;2023-04-25T12:21:50;10.50;99.90
14397;DHT22;50653;47.810;13.022;2023-04-25T12:24:18;10.80;99.90
14397;DHT22;50653;47.810;13.022;2023-04-25T12:26:58;10.80;99.90
14397;DHT22;50653;47.810;13.022;2023-04-25T12:29:26;11.00;99.90
14397;DHT22;50653;47.810;13.022;2023-04-25T12:31:53;11.10;99.90
14397;DHT22;50653;47.810;13.022;2023-04-25T12:34:19;11.00;99.90
14397;DHT22;50653;47.810;13.022;2023-04-25T12:36:46;11.00;99.90
14397;DHT22;50653;47.810;13.022;2023-04-25T12:39:16;10.90;99.90
14397;DHT22;50653;47.810;13.022;2023-04-25T12:41:43;10.90;99.90
14397;DHT22;50653;47.810;13.022;2023-04-25T12:44:09;11.00;99.90
14397;DHT22;50653;47.810;13.022;2023-04-25T12:54:19;11.20;95.40
14397;DHT22;50653;47.810;13.022;2023-04-25T12:56:50;11.30;95.50
14397;DHT22;50653;47.810;13.022;2023-04-25T12:59:17;11.30;94.70
14397;DHT22;50653;47.810;13.022;2023-04-25T13:01:43;11.40;95.20
14397;DHT22;50653;47.810;13.022;2023-04-25T13:04:10;11.40;93.40
14397;DHT22;50653;47.810;13.022;2023-04-25T13:06:42;11.40;96.40
14397;DHT22;50653;47.810;13.022;2023-04-25T13:09:14;11.50;98.40
14397;DHT22;50653;47.810;13.022;2023-04-25T13:11:41;11.60;99.90
14397;DHT22;50653;47.810;13.022;2023-04-25T13:14:06;11.30;99.90
14397;DHT22;50653;47.810;13.022;2023-04-25T13:16:38;11.20;99.90
14397;DHT22;50653;47.810;13.022;2023-04-25T13:19:07;11.20;99.90
14397;DHT22;50653;47.810;13.022;2023-04-25T13:22:03;11.00;99.90
14397;DHT22;50653;47.810;13.022;2023-04-25T13:24:32;10.30;99.90
14397;DHT22;50653;47.810;13.022;2023-04-25T13:26:58;9.00;99.90
14397;DHT22;50653;47.810;13.022;2023-04-25T13:29:24;8.10;99.90
14397;DHT22;50653;47.810;13.022;2023-04-25T13:31:50;7.40;99.90
14397;DHT22;50653;47.810;13.022;2023-04-25T13:34:15;7.10;99.90
14397;DHT22;50653;47.810;13.022;2023-04-25T13:36:41;6.60;99.90
14397;DHT22;50653;47.810;13.022;2023-04-25T13:39:07;6.70;99.90
14397;DHT22;50653;47.810;13.022;2023-04-25T13:41:51;6.40;99.90
14397;DHT22;50653;47.810;13.022;2023-04-25T13:48:48;6.50;99.90
14397;DHT22;50653;47.810;13.022;2023-04-25T13:51:15;6.10;99.90
14397;DHT22;50653;47.810;13.022;2023-04-25T13:53:42;6.90;99.90
14397;DHT22;50653;47.810;13.022;2023-04-25T13:56:07;6.20;99.90
14397;DHT22;50653;47.810;13.022;2023-04-25T13:58:33;6.20;99.90
14397;DHT22;50653;47.810;13.022;2023-04-25T14:01:01;6.80;99.90
14397;DHT22;50653;47.810;13.022;2023-04-25T14:03:29;7.40;99.90
14397;DHT22;50653;47.810;13.022;2023-04-25T14:05:55;7.40;99.90
14397;DHT22;50653;47.810;13.022;2023-04-25T14:08:23;7.60;99.90
14397;DHT22;50653;47.810;13.022;2023-04-25T14:10:49;7.90;99.90
14397;DHT22;50653;47.810;13.022;2023-04-25T14:13:15;7.80;99.90
14397;DHT22;50653;47.810;13.022;2023-04-25T14:15:43;7.80;99.90
14397;DHT22;50653;47.810;13.022;2023-04-25T14:18:19;7.90;99.90
14397;DHT22;50653;47.810;13.022;2023-04-25T14:21:09;7.30;99.90
14397;DHT22;50653;47.810;13.022;2023-04-25T14:23:37;7.50;99.90
14397;DHT22;50653;47.810;13.022;2023-04-25T14:29:41;8.40;99.90
14397;DHT22;50653;47.810;13.022;2023-04-25T14:32:10;8.20;99.90
14397;DHT22;50653;47.810;13.022;2023-04-25T14:34:38;7.70;99.90
14397;DHT22;50653;47.810;13.022;2023-04-25T14:37:04;7.60;99.90
14397;DHT22;50653;47.810;13.022;2023-04-25T14:39:35;7.60;99.90
14397;DHT22;50653;47.810;13.022;2023-04-25T14:42:04;7.50;99.90
14397;DHT22;50653;47.810;13.022;2023-04-25T14:44:34;7.50;99.90
14397;DHT22;50653;47.810;13.022;2023-04-25T14:47:16;7.60;99.90
14397;DHT22;50653;47.810;13.022;2023-04-25T14:50:02;8.20;99.90
14397;DHT22;50653;47.810;13.022;2023-04-25T14:53:11;8.30;99.90
14397;DHT22;50653;47.810;13.022;2023-04-25T14:58:44;8.30;99.90
14397;DHT22;50653;47.810;13.022;2023-04-25T15:01:56;8.50;99.90
14397;DHT22;50653;47.810;13.022;2023-04-25T15:47:23;7.80;99.90
14397;DHT22;50653;47.810;13.022;2023-04-25T15:53:31;7.90;99.90
14397;DHT22;50653;47.810;13.022;2023-04-25T16:00:20;8.30;99.90
14397;DHT22;50653;47.810;13.022;2023-04-25T16:06:58;8.30;99.90
14397;DHT22;50653;47.810;13.022;2023-04-25T16:09:30;8.30;99.90
14397;DHT22;50653;47.810;13.022;2023-04-25T16:12:34;8.20;99.90
14397;DHT22;50653;47.810;13.022;2023-04-25T16:15:01;8.10;99.90
14397;DHT22;50653;47.810;13.022;2023-04-25T16:17:38;8.10;99.90
14397;DHT22;50653;47.810;13.022;2023-04-25T16:20:29;8.00;99.90
14397;DHT22;50653;47.810;13.022;2023-04-25T16:23:48;7.90;99.90
14397;DHT22;50653;47.810;13.022;2023-04-25T16:26:14;7.90;99.90
14397;DHT22;50653;47.810;13.022;2023-04-25T16:28:47;7.80;99.90
14397;DHT22;50653;47.810;13.022;2023-04-25T16:34:45;7.80;99.90
14397;DHT22;50653;47.810;13.022;2023-04-25T16:53:33;7.50;99.90
14397;DHT22;50653;47.810;13.022;2023-04-25T16:56:26;7.60;99.90
14397;DHT22;50653;47.810;13.022;2023-04-25T16:58:54;7.50;99.90
14397;DHT22;50653;47.810;13.022;2023-04-25T17:01:23;7.50;99.90
14397;DHT22;50653;47.810;13.022;2023-04-25T17:03:49;7.60;99.90
14397;DHT22;50653;47.810;13.022;2023-04-25T17:06:17;7.60;99.90
14397;DHT22;50653;47.810;13.022;2023-04-25T17:09:01;7.60;99.90
14397;DHT22;50653;47.810;13.022;2023-04-25T17:11:35;7.60;99.90
14397;DHT22;50653;47.810;13.022;2023-04-25T17:14:35;7.60;99.90
14397;DHT22;50653;47.810;13.022;2023-04-25T17:17:16;7.60;99.90
14397;DHT22;50653;47.810;13.022;2023-04-25T17:26:35;7.50;99.90
14397;DHT22;50653;47.810;13.022;2023-04-25T17:29:01;7.50;99.90
14397;DHT22;50653;47.810;13.022;2023-04-25T17:31:32;7.50;99.90
14397;DHT22;50653;47.810;13.022;2023-04-25T17:37:59;7.50;99.90
14397;DHT22;50653;47.810;13.022;2023-04-25T17:40:46;7.50;99.90